createdAt,value
2022-08-01T00:00:08.758Z,10.75
2022-08-01T00:02:36.660Z,11.02
2022-08-01T00:05:03.367Z,10.75
2022-08-01T00:07:29.836Z,9.85
2022-08-01T00:09:56.276Z,9.83
2022-08-01T00:12:22.736Z,9.50
2022-08-01T00:14:49.182Z,9.25
2022-08-01T00:17:15.702Z,9.70
2022-08-01T00:19:42.159Z,10.07
2022-08-01T00:22:08.946Z,9.23
2022-08-01T00:24:35.578Z,9.55
2022-08-01T00:27:02.008Z,9.77
2022-08-01T00:30:10.279Z,9.45
2022-08-01T00:32:14.913Z,9.98
2022-08-01T00:34:41.394Z,9.83
2022-08-01T00:37:07.877Z,10.02
2022-08-01T00:39:34.425Z,10.43
2022-08-01T00:42:06.758Z,10.32
2022-08-01T00:44:33.428Z,10.20
2022-08-01T00:46:59.868Z,10.60
2022-08-01T00:49:26.589Z,10.40
2022-08-01T00:51:53.140Z,9.82
2022-08-01T00:54:19.739Z,9.98
2022-08-01T00:56:46.276Z,10.05
2022-08-01T00:59:14.941Z,9.50
2022-08-01T01:01:46.869Z,9.60
2022-08-01T01:04:17.546Z,10.32
2022-08-01T01:07:03.121Z,9.48
2022-08-01T01:10:07.717Z,9.35
2022-08-01T01:12:49.939Z,9.83
2022-08-01T01:15:23.477Z,8.77
2022-08-01T01:17:57.384Z,10.15
2022-08-01T01:20:31.045Z,9.65
2022-08-01T01:22:57.427Z,10.02
2022-08-01T01:25:54.117Z,10.20
2022-08-01T01:28:58.226Z,9.88
2022-08-01T01:31:26.284Z,9.15
2022-08-01T01:33:54.994Z,9.25
2022-08-01T01:36:25.561Z,9.32
2022-08-01T01:38:53.537Z,8.90
2022-08-01T01:41:21.783Z,9.45
2022-08-01T01:43:49.421Z,8.77
2022-08-01T01:46:19.923Z,9.48
2022-08-01T01:48:48.140Z,9.50
2022-08-01T01:51:17.282Z,9.50
2022-08-01T01:53:45.271Z,9.68
2022-08-01T01:56:15.276Z,9.85
2022-08-01T01:58:44.245Z,8.82
2022-08-01T02:01:14.762Z,9.52
2022-08-01T02:03:44.200Z,8.67
2022-08-01T02:06:14.507Z,8.65
2022-08-01T02:08:43.425Z,9.05
2022-08-01T02:11:11.049Z,8.75
2022-08-01T02:13:39.165Z,8.73
2022-08-01T02:16:06.687Z,8.20
2022-08-01T02:18:34.205Z,8.00
2022-08-01T02:21:03.572Z,7.97
2022-08-01T02:23:33.448Z,8.23
2022-08-01T02:26:11.126Z,7.88
2022-08-01T02:29:08.123Z,7.97
2022-08-01T02:31:39.246Z,7.22
2022-08-01T02:34:10.324Z,7.53
2022-08-01T02:36:38.500Z,7.65
2022-08-01T02:39:09.920Z,7.95
2022-08-01T02:41:41.659Z,7.83
2022-08-01T02:44:10.615Z,7.80
2022-08-01T02:46:44.643Z,7.78
2022-08-01T02:49:13.028Z,8.05
2022-08-01T02:51:41.652Z,7.63
2022-08-01T02:54:10.471Z,8.30
2022-08-01T02:56:38.345Z,8.13
2022-08-01T02:59:15.839Z,8.13
2022-08-01T03:01:48.247Z,8.02
2022-08-01T03:04:15.809Z,7.97
2022-08-01T03:06:45.087Z,8.37
2022-08-01T03:09:13.484Z,8.00
2022-08-01T03:11:43.011Z,7.85
2022-08-01T03:14:12.338Z,7.85
2022-08-01T03:16:40.669Z,7.70
2022-08-01T03:19:09.562Z,7.40
2022-08-01T03:21:36.473Z,7.88
2022-08-01T03:24:06.222Z,8.57
2022-08-01T03:26:35.955Z,8.27
2022-08-01T03:29:09.543Z,8.35
2022-08-01T03:31:37.347Z,8.03
2022-08-01T03:34:05.861Z,7.85
2022-08-01T03:36:35.516Z,8.20
2022-08-01T03:39:04.307Z,8.20
2022-08-01T03:41:37.518Z,7.90
2022-08-01T03:44:14.313Z,6.53
2022-08-01T03:46:47.842Z,6.85
2022-08-01T03:49:19.046Z,6.47
2022-08-01T03:51:48.286Z,6.95
2022-08-01T03:54:16.802Z,6.70
2022-08-01T03:56:44.294Z,6.67
2022-08-01T03:59:11.327Z,6.78
2022-08-01T04:01:38.393Z,6.53
2022-08-01T04:04:05.189Z,6.32
2022-08-01T04:06:31.818Z,6.30
2022-08-01T04:08:58.520Z,6.87
2022-08-01T04:11:26.247Z,6.93
2022-08-01T04:13:54.231Z,6.80
2022-08-01T04:16:22.113Z,7.00
2022-08-01T04:18:48.551Z,7.00
2022-08-01T04:21:18.524Z,6.73
2022-08-01T04:23:46.954Z,6.88
2022-08-01T04:26:19.332Z,7.07
2022-08-01T04:28:47.456Z,7.35
2022-08-01T04:31:17.003Z,7.22
2022-08-01T04:33:48.606Z,7.03
2022-08-01T04:36:16.969Z,7.00
2022-08-01T04:38:46.767Z,7.22
2022-08-01T04:41:15.146Z,6.85
2022-08-01T04:43:44.186Z,6.70
2022-08-01T04:46:11.748Z,7.40
2022-08-01T04:48:39.597Z,7.38
2022-08-01T04:51:13.139Z,7.50
2022-08-01T04:53:39.553Z,6.70
2022-08-01T04:56:06.076Z,7.10
2022-08-01T04:58:32.500Z,6.50
2022-08-01T05:00:59.003Z,7.03
2022-08-01T05:03:25.507Z,6.80
2022-08-01T05:05:51.998Z,6.30
2022-08-01T05:08:18.440Z,6.03
2022-08-01T05:10:44.870Z,6.23
2022-08-01T05:13:11.298Z,6.10
2022-08-01T05:15:37.849Z,5.53
2022-08-01T05:18:04.660Z,5.05
2022-08-01T05:20:31.156Z,4.90
2022-08-01T05:22:57.765Z,4.27
2022-08-01T05:25:33.076Z,3.85
2022-08-01T05:28:10.883Z,3.90
2022-08-01T05:30:37.318Z,3.50
2022-08-01T05:33:03.768Z,3.65
2022-08-01T05:35:48.351Z,3.60
2022-08-01T05:38:16.267Z,3.47
2022-08-01T05:40:42.784Z,3.40
2022-08-01T05:43:09.209Z,3.47
2022-08-01T05:45:35.732Z,3.20
2022-08-01T05:48:02.140Z,2.77
2022-08-01T05:50:28.582Z,2.80
2022-08-01T05:52:54.999Z,2.65
2022-08-01T05:55:21.424Z,2.50
2022-08-01T05:57:47.856Z,2.30
2022-08-01T06:00:14.624Z,2.10
2022-08-01T06:02:42.672Z,1.90
2022-08-01T06:05:13.029Z,2.42
2022-08-01T06:07:40.126Z,1.80
2022-08-01T06:10:08.064Z,1.70
2022-08-01T06:12:35.710Z,1.67
2022-08-01T06:15:02.910Z,1.50
2022-08-01T06:17:29.387Z,1.60
2022-08-01T06:19:55.821Z,1.60
2022-08-01T06:22:22.647Z,1.70
2022-08-01T06:24:49.312Z,1.60
2022-08-01T06:27:21.941Z,1.90
2022-08-01T06:29:51.019Z,1.83
2022-08-01T06:32:26.383Z,2.95
2022-08-01T06:34:54.850Z,2.17
2022-08-01T06:37:21.307Z,2.20
2022-08-01T06:39:47.831Z,2.15
2022-08-01T06:42:14.298Z,2.85
2022-08-01T06:44:40.705Z,2.78
2022-08-01T06:47:07.272Z,2.55
2022-08-01T06:49:33.837Z,2.50
2022-08-01T06:52:00.283Z,2.60
2022-08-01T06:54:26.687Z,2.08
2022-08-01T06:56:53.137Z,1.90
2022-08-01T06:59:19.557Z,2.20
2022-08-01T07:01:46.013Z,2.10
2022-08-01T07:04:12.439Z,2.20
2022-08-01T07:06:38.855Z,2.10
2022-08-01T07:09:10.776Z,2.50
2022-08-01T07:11:38.714Z,2.40
2022-08-01T07:14:05.154Z,2.40
2022-08-01T07:16:31.611Z,2.70
2022-08-01T07:18:58.098Z,3.10
2022-08-01T07:21:38.934Z,2.80
2022-08-01T07:24:12.909Z,2.50
2022-08-01T07:26:53.282Z,2.67
2022-08-01T07:29:22.749Z,3.00
2022-08-01T07:31:49.149Z,2.70
2022-08-01T07:34:15.568Z,3.47
2022-08-01T07:36:41.991Z,3.60
2022-08-01T07:39:08.444Z,2.97
2022-08-01T07:41:53.874Z,2.80
2022-08-01T07:44:21.257Z,3.05
2022-08-01T07:46:47.673Z,3.10
2022-08-01T07:49:14.151Z,3.85
2022-08-01T07:51:40.653Z,4.07
2022-08-01T07:54:07.070Z,4.72
2022-08-01T07:56:33.478Z,4.40
2022-08-01T07:58:59.920Z,4.35
2022-08-01T08:01:26.477Z,4.35
2022-08-01T08:03:52.962Z,4.60
2022-08-01T08:06:19.395Z,4.80
2022-08-01T08:08:45.827Z,5.30
2022-08-01T08:11:12.278Z,5.30
2022-08-01T08:13:38.723Z,4.85
2022-08-01T08:16:05.171Z,5.73
2022-08-01T08:18:31.696Z,4.40
2022-08-01T08:20:58.096Z,4.28
2022-08-01T08:23:41.195Z,4.50
2022-08-01T08:26:09.924Z,3.88
2022-08-01T08:28:36.361Z,3.77
2022-08-01T08:31:03.121Z,3.40
2022-08-01T08:33:29.575Z,2.85
2022-08-01T08:35:56.006Z,2.45
2022-08-01T08:38:28.524Z,2.65
2022-08-01T08:40:58.033Z,2.50
2022-08-01T08:43:26.054Z,2.70
2022-08-01T08:46:00.171Z,2.40
2022-08-01T08:48:27.670Z,2.00
2022-08-01T08:50:56.208Z,2.90
2022-08-01T08:53:23.247Z,1.80
2022-08-01T08:55:56.003Z,1.60
2022-08-01T08:58:26.333Z,1.77
2022-08-01T09:00:58.868Z,2.35
2022-08-01T09:03:25.681Z,2.10
2022-08-01T09:05:52.185Z,2.20
2022-08-01T09:08:18.607Z,2.40
2022-08-01T09:10:45.065Z,2.40
2022-08-01T09:13:14.672Z,2.20
2022-08-01T09:15:46.875Z,2.83
2022-08-01T09:18:45.867Z,2.60
2022-08-01T09:21:21.864Z,2.70
2022-08-01T09:23:54.130Z,2.53
2022-08-01T09:26:34.021Z,2.90
2022-08-01T09:29:04.174Z,3.10
2022-08-01T09:31:41.655Z,2.70
2022-08-01T09:34:14.462Z,2.75
2022-08-01T09:36:51.906Z,2.90
2022-08-01T09:39:22.282Z,2.90
2022-08-01T09:41:49.565Z,3.42
2022-08-01T09:44:18.393Z,2.80
2022-08-01T09:46:59.799Z,2.92
2022-08-01T09:49:50.873Z,2.55
2022-08-01T09:52:26.128Z,2.60
2022-08-01T09:54:57.863Z,2.60
2022-08-01T09:57:24.815Z,2.00
2022-08-01T09:59:58.827Z,2.70
2022-08-01T10:02:38.520Z,2.70
2022-08-01T10:05:08.801Z,2.88
2022-08-01T10:08:00.038Z,3.00
2022-08-01T10:10:29.001Z,2.80
2022-08-01T10:12:58.139Z,3.10
2022-08-01T10:15:36.891Z,2.85
2022-08-01T10:18:16.051Z,2.88
2022-08-01T10:20:53.061Z,2.83
2022-08-01T10:23:40.020Z,2.87
2022-08-01T10:26:08.821Z,3.53
2022-08-01T10:28:38.620Z,3.70
2022-08-01T10:31:12.491Z,2.95
2022-08-01T10:33:51.231Z,3.17
2022-08-01T10:36:22.974Z,3.10
2022-08-01T10:38:52.318Z,3.35
2022-08-01T10:41:20.080Z,2.92
2022-08-01T10:43:47.112Z,2.80
2022-08-01T10:46:14.377Z,2.78
2022-08-01T10:48:50.334Z,2.57
2022-08-01T10:51:20.369Z,2.30
2022-08-01T10:53:48.795Z,2.40
2022-08-01T10:56:16.798Z,2.55
2022-08-01T10:58:45.255Z,2.80
2022-08-01T11:01:30.557Z,2.47
2022-08-01T11:04:16.825Z,4.35
2022-08-01T11:06:54.845Z,3.60
2022-08-01T11:09:36.165Z,2.90
2022-08-01T11:12:12.783Z,2.90
2022-08-01T11:14:58.893Z,3.37
2022-08-01T11:17:37.670Z,3.58
2022-08-01T11:20:12.275Z,4.15
2022-08-01T11:22:58.594Z,3.30
2022-08-01T11:26:04.495Z,3.67
2022-08-01T11:28:15.359Z,3.40
2022-08-01T11:30:42.780Z,4.00
2022-08-01T11:33:11.451Z,4.00
2022-08-01T11:35:39.156Z,3.47
2022-08-01T11:38:25.467Z,3.50
2022-08-01T11:41:12.232Z,2.50
2022-08-01T11:44:11.797Z,2.80
2022-08-01T11:47:09.914Z,3.05
2022-08-01T11:49:39.819Z,2.58
2022-08-01T11:52:10.047Z,4.20
2022-08-01T11:54:46.951Z,4.20
2022-08-01T11:57:15.104Z,4.15
2022-08-01T11:59:49.363Z,4.10
2022-08-01T12:02:34.377Z,3.75
2022-08-01T12:05:02.252Z,4.18
2022-08-01T12:07:31.841Z,4.00
2022-08-01T12:10:31.553Z,3.50
2022-08-01T12:13:03.020Z,3.80
2022-08-01T12:15:34.805Z,3.70
2022-08-01T12:18:04.113Z,3.80
2022-08-01T12:20:54.531Z,4.37
2022-08-01T12:23:23.311Z,3.60
2022-08-01T12:25:53.116Z,3.00
2022-08-01T12:28:19.592Z,2.83
2022-08-01T12:30:49.019Z,2.90
2022-08-01T12:33:19.055Z,2.93
2022-08-01T12:35:45.473Z,2.90
2022-08-01T12:38:22.183Z,3.33
2022-08-01T12:40:53.215Z,2.90
2022-08-01T12:43:28.695Z,3.20
2022-08-01T12:45:58.760Z,3.40
2022-08-01T12:48:26.522Z,3.38
2022-08-01T12:50:54.486Z,3.50
2022-08-01T12:53:22.206Z,3.30
2022-08-01T12:55:58.206Z,3.13
2022-08-01T12:58:32.555Z,3.37
2022-08-01T13:01:10.432Z,2.92
2022-08-01T13:03:38.190Z,2.80
2022-08-01T13:06:12.363Z,2.92
2022-08-01T13:08:38.834Z,2.80
2022-08-01T13:11:08.198Z,3.00
2022-08-01T13:13:41.955Z,3.13
2022-08-01T13:16:12.547Z,3.22
2022-08-01T13:18:49.949Z,2.90
2022-08-01T13:21:22.161Z,3.20
2022-08-01T13:24:07.231Z,2.90
2022-08-01T13:26:53.338Z,2.75
2022-08-01T13:29:31.328Z,3.10
2022-08-01T13:31:58.510Z,2.83
2022-08-01T13:34:36.880Z,3.10
2022-08-01T13:37:03.520Z,3.17
2022-08-01T13:39:30.707Z,3.80
2022-08-01T13:41:57.119Z,3.58
2022-08-01T13:44:23.588Z,3.10
2022-08-01T13:46:51.541Z,2.75
2022-08-01T13:49:19.074Z,2.20
2022-08-01T13:51:45.927Z,2.40
2022-08-01T13:54:12.378Z,2.38
2022-08-01T13:56:38.850Z,2.10
2022-08-01T13:59:05.267Z,2.40
2022-08-01T14:01:34.479Z,2.50
2022-08-01T14:04:01.724Z,2.60
2022-08-01T14:06:28.317Z,2.42
2022-08-01T14:08:54.719Z,2.70
2022-08-01T14:11:21.694Z,2.60
2022-08-01T14:13:48.154Z,2.70
2022-08-01T14:16:15.421Z,2.80
2022-08-01T14:18:42.103Z,2.70
2022-08-01T14:21:10.833Z,2.70
2022-08-01T14:23:37.331Z,2.50
2022-08-01T14:26:09.753Z,2.27
2022-08-01T14:28:38.774Z,2.40
2022-08-01T14:31:05.969Z,2.35
2022-08-01T14:33:34.280Z,2.58
2022-08-01T14:36:09.351Z,2.60
2022-08-01T14:38:48.315Z,2.30
2022-08-01T14:41:16.098Z,2.60
2022-08-01T14:43:42.909Z,2.45
2022-08-01T14:46:09.309Z,2.60
2022-08-01T14:48:35.758Z,2.63
2022-08-01T14:51:02.674Z,2.40
2022-08-01T14:53:30.033Z,2.60
2022-08-01T14:55:56.475Z,2.50
2022-08-01T14:58:22.961Z,2.45
2022-08-01T15:00:49.458Z,2.50
2022-08-01T15:03:16.043Z,2.10
2022-08-01T15:05:42.498Z,2.45
2022-08-01T15:08:08.986Z,2.45
2022-08-01T15:10:35.654Z,2.40
2022-08-01T15:13:02.127Z,2.50
2022-08-01T15:15:28.682Z,2.30
2022-08-01T15:17:55.296Z,2.42
2022-08-01T15:20:22.995Z,2.45
2022-08-01T15:22:49.653Z,2.30
2022-08-01T15:25:16.320Z,2.20
2022-08-01T15:27:42.835Z,2.50
2022-08-01T15:30:09.529Z,2.50
2022-08-01T15:32:35.964Z,2.40
2022-08-01T15:35:02.429Z,2.35
2022-08-01T15:37:28.852Z,2.47
2022-08-01T15:39:56.675Z,2.83
2022-08-01T15:42:25.582Z,2.65
2022-08-01T15:44:53.478Z,2.55
2022-08-01T15:47:19.920Z,2.60
2022-08-01T15:49:46.359Z,2.80
2022-08-01T15:52:22.082Z,2.50
2022-08-01T15:54:49.744Z,2.50
2022-08-01T15:57:16.298Z,2.50
2022-08-01T15:59:42.785Z,2.60
2022-08-01T16:02:09.901Z,2.50
2022-08-01T16:04:38.976Z,2.47
2022-08-01T16:07:05.779Z,2.40
2022-08-01T16:09:32.233Z,2.30
2022-08-01T16:11:58.661Z,2.55
2022-08-01T16:14:25.100Z,2.70
2022-08-01T16:16:51.565Z,2.63
2022-08-01T16:19:19.116Z,2.30
2022-08-01T16:21:47.869Z,2.30
2022-08-01T16:24:14.613Z,2.30
2022-08-01T16:26:41.159Z,2.42
2022-08-01T16:29:07.780Z,2.30
2022-08-01T16:31:39.481Z,2.50
2022-08-01T16:34:17.371Z,2.50
2022-08-01T16:36:43.826Z,2.58
2022-08-01T16:39:10.257Z,2.40
2022-08-01T16:41:37.682Z,2.60
2022-08-01T16:44:04.487Z,2.63
2022-08-01T16:46:33.935Z,2.40
2022-08-01T16:49:00.480Z,2.50
2022-08-01T16:51:27.041Z,2.35
2022-08-01T16:53:53.530Z,2.50
2022-08-01T16:56:20.239Z,2.40
2022-08-01T16:58:46.842Z,2.30
2022-08-01T17:01:59.224Z,2.38
2022-08-01T17:04:01.664Z,2.60
2022-08-01T17:06:29.141Z,2.70
2022-08-01T17:08:55.595Z,2.40
2022-08-01T17:11:22.237Z,2.50
2022-08-01T17:13:48.728Z,2.35
2022-08-01T17:16:15.164Z,2.60
2022-08-01T17:18:41.629Z,2.10
2022-08-01T17:21:08.114Z,2.50
2022-08-01T17:23:34.697Z,2.60
2022-08-01T17:26:01.128Z,2.63
2022-08-01T17:28:27.680Z,2.28
2022-08-01T17:30:54.294Z,2.30
2022-08-01T17:33:21.086Z,2.30
2022-08-01T17:35:47.522Z,2.50
2022-08-01T17:38:14.089Z,2.40
2022-08-01T17:40:41.282Z,2.60
2022-08-01T17:43:08.436Z,2.27
2022-08-01T17:45:39.384Z,2.20
2022-08-01T17:48:18.581Z,2.13
2022-08-01T17:50:46.790Z,2.30
2022-08-01T17:53:16.140Z,2.60
2022-08-01T17:55:56.396Z,2.70
2022-08-01T17:58:49.662Z,2.60
2022-08-01T18:01:16.181Z,2.28
2022-08-01T18:03:43.309Z,2.25
2022-08-01T18:06:10.985Z,1.88
2022-08-01T18:08:37.400Z,2.00
2022-08-01T18:11:03.872Z,2.03
2022-08-01T18:13:30.324Z,2.25
2022-08-01T18:15:57.213Z,2.40
2022-08-01T18:18:33.654Z,2.15
2022-08-01T18:21:02.009Z,2.03
2022-08-01T18:23:28.656Z,2.08
2022-08-01T18:25:55.114Z,1.98
2022-08-01T18:28:31.619Z,2.10
2022-08-01T18:31:00.837Z,2.00
2022-08-01T18:33:27.334Z,2.03
2022-08-01T18:35:54.215Z,2.00
2022-08-01T18:38:24.180Z,2.10
2022-08-01T18:40:51.453Z,2.08
2022-08-01T18:43:17.943Z,2.30
2022-08-01T18:45:44.623Z,2.20
2022-08-01T18:48:11.626Z,1.90
2022-08-01T18:50:38.319Z,1.90
2022-08-01T18:53:04.790Z,1.80
2022-08-01T18:55:31.274Z,1.83
2022-08-01T18:57:59.697Z,1.70
2022-08-01T19:00:26.166Z,2.05
2022-08-01T19:02:52.655Z,1.90
2022-08-01T19:05:19.115Z,2.00
2022-08-01T19:08:06.017Z,1.77
2022-08-01T19:10:31.979Z,1.70
2022-08-01T19:12:58.448Z,1.70
2022-08-01T19:15:25.709Z,1.90
2022-08-01T19:17:52.166Z,1.90
2022-08-01T19:20:18.690Z,1.70
2022-08-01T19:22:45.123Z,1.70
2022-08-01T19:25:14.731Z,1.80
2022-08-01T19:27:45.828Z,1.92
2022-08-01T19:30:13.532Z,1.90
2022-08-01T19:32:42.358Z,2.10
2022-08-01T19:35:10.820Z,1.83
2022-08-01T19:37:39.525Z,2.00
2022-08-01T19:40:06.462Z,1.83
2022-08-01T19:42:32.895Z,1.90
2022-08-01T19:44:59.702Z,1.80
2022-08-01T19:47:26.158Z,2.00
2022-08-01T19:50:12.593Z,1.60
2022-08-01T19:52:41.220Z,1.83
2022-08-01T19:55:09.046Z,1.90
2022-08-01T19:57:45.176Z,1.80
2022-08-01T20:00:27.869Z,1.80
2022-08-01T20:02:56.497Z,1.70
2022-08-01T20:05:26.311Z,1.80
2022-08-01T20:07:53.323Z,1.80
2022-08-01T20:10:20.598Z,1.98
2022-08-01T20:12:48.073Z,1.90
2022-08-01T20:15:16.269Z,2.10
2022-08-01T20:17:42.998Z,1.98
2022-08-01T20:20:09.864Z,2.30
2022-08-01T20:22:36.694Z,2.03
2022-08-01T20:25:04.167Z,2.13
2022-08-01T20:27:31.661Z,1.88
2022-08-01T20:30:00.602Z,1.98
2022-08-01T20:32:38.666Z,1.92
2022-08-01T20:35:05.409Z,1.85
2022-08-01T20:37:49.654Z,2.03
2022-08-01T20:40:25.230Z,2.05
2022-08-01T20:42:53.689Z,2.00
2022-08-01T20:45:21.879Z,2.33
2022-08-01T20:47:50.334Z,1.95
2022-08-01T20:50:27.080Z,2.10
2022-08-01T20:53:07.385Z,2.10
2022-08-01T20:55:45.327Z,1.90
2022-08-01T20:58:27.660Z,1.90
2022-08-01T21:00:57.003Z,2.10
2022-08-01T21:03:31.079Z,2.27
2022-08-01T21:06:09.733Z,1.95
2022-08-01T21:08:42.706Z,1.80
2022-08-01T21:11:15.902Z,1.83
2022-08-01T21:13:44.401Z,2.10
2022-08-01T21:16:23.572Z,1.90
2022-08-01T21:19:22.329Z,1.90
2022-08-01T21:22:11.199Z,1.85
2022-08-01T21:24:58.133Z,1.90
2022-08-01T21:27:33.062Z,2.00
2022-08-01T21:30:02.977Z,1.90
2022-08-01T21:32:32.495Z,1.90
2022-08-01T21:35:00.403Z,2.05
2022-08-01T21:37:27.048Z,2.00
2022-08-01T21:39:53.945Z,2.05
2022-08-01T21:42:21.094Z,2.10
2022-08-01T21:44:47.806Z,1.90
2022-08-01T21:47:15.245Z,1.90
2022-08-01T21:49:41.765Z,1.98
2022-08-01T21:52:17.603Z,2.00
2022-08-01T21:54:46.750Z,1.83
2022-08-01T21:57:25.106Z,1.75
2022-08-01T21:59:59.568Z,1.80
2022-08-01T22:02:29.793Z,2.00
2022-08-01T22:05:02.828Z,1.83
2022-08-01T22:07:44.889Z,1.90
2022-08-01T22:10:14.230Z,1.80
2022-08-01T22:12:40.878Z,2.00
2022-08-01T22:15:08.434Z,1.90
2022-08-01T22:17:35.343Z,2.10
2022-08-01T22:20:01.866Z,2.00
2022-08-01T22:22:50.612Z,2.10
2022-08-01T22:25:17.248Z,1.98
2022-08-01T22:28:03.203Z,2.00
2022-08-01T22:30:32.155Z,2.00
2022-08-01T22:33:15.443Z,1.90
2022-08-01T22:35:47.614Z,1.95
2022-08-01T22:38:16.620Z,2.40
2022-08-01T22:40:53.207Z,2.10
2022-08-01T22:43:26.128Z,2.20
2022-08-01T22:46:15.177Z,2.40
2022-08-01T22:48:46.018Z,2.60
2022-08-01T22:51:33.635Z,2.38
2022-08-01T22:54:08.031Z,2.25
2022-08-01T22:56:43.456Z,2.10
2022-08-01T22:59:26.508Z,2.60
2022-08-01T23:02:12.782Z,2.50
2022-08-01T23:04:44.648Z,2.30
2022-08-01T23:07:11.920Z,2.50
2022-08-01T23:09:53.223Z,2.55
2022-08-01T23:12:23.510Z,2.40
2022-08-01T23:14:53.150Z,2.40
2022-08-01T23:17:26.948Z,2.22
2022-08-01T23:19:57.107Z,2.30
2022-08-01T23:22:27.345Z,2.15
2022-08-01T23:25:03.465Z,2.20
2022-08-01T23:28:04.472Z,2.00
2022-08-01T23:30:30.797Z,2.13
2022-08-01T23:32:58.127Z,2.03
2022-08-01T23:35:25.955Z,2.20
2022-08-01T23:37:53.159Z,2.10
2022-08-01T23:40:20.695Z,2.20
2022-08-01T23:42:53.129Z,2.00
2022-08-01T23:45:19.709Z,2.40
2022-08-01T23:47:46.750Z,2.30
2022-08-01T23:50:13.217Z,2.37
2022-08-01T23:52:48.388Z,2.20
2022-08-01T23:55:16.851Z,2.47
2022-08-01T23:57:44.106Z,2.30
